sensor_id;sensor_type;location;lat;lon;timestamp;P1;durP1;ratioP1;P2;durP2;ratioP2
24743;SDS011;12844;52.110;5.548;2023-06-10T02:51:54;4.88;;;4.47;;
24743;SDS011;12844;52.110;5.548;2023-06-10T02:54:19;4.45;;;4.05;;
24743;SDS011;12844;52.110;5.548;2023-06-10T02:56:45;4.78;;;4.38;;
24743;SDS011;12844;52.110;5.548;2023-06-10T02:59:13;4.82;;;4.43;;
24743;SDS011;12844;52.110;5.548;2023-06-10T03:01:38;4.70;;;4.30;;
24743;SDS011;12844;52.110;5.548;2023-06-10T03:04:04;4.40;;;4.05;;
24743;SDS011;12844;52.110;5.548;2023-06-10T03:06:30;4.43;;;4.03;;
24743;SDS011;12844;52.110;5.548;2023-06-10T03:08:59;4.80;;;4.40;;
24743;SDS011;12844;52.110;5.548;2023-06-10T05:20:53;4.25;;;3.85;;
24743;SDS011;12844;52.110;5.548;2023-06-10T05:23:19;4.35;;;4.00;;
24743;SDS011;12844;52.110;5.548;2023-06-10T05:25:45;4.90;;;4.40;;
24743;SDS011;12844;52.110;5.548;2023-06-10T05:28:10;4.20;;;3.80;;
24743;SDS011;12844;52.110;5.548;2023-06-10T05:30:36;4.18;;;3.78;;
24743;SDS011;12844;52.110;5.548;2023-06-10T05:33:02;4.20;;;3.80;;
24743;SDS011;12844;52.110;5.548;2023-06-10T05:35:29;3.83;;;3.53;;
24743;SDS011;12844;52.110;5.548;2023-06-10T05:37:54;4.55;;;4.15;;
24743;SDS011;12844;52.110;5.548;2023-06-10T06:50:15;4.15;;;3.75;;
24743;SDS011;12844;52.110;5.548;2023-06-10T06:52:41;4.07;;;3.67;;
24743;SDS011;12844;52.110;5.548;2023-06-10T06:55:07;3.60;;;3.30;;
24743;SDS011;12844;52.110;5.548;2023-06-10T06:57:32;3.85;;;3.55;;
24743;SDS011;12844;52.110;5.548;2023-06-10T06:59:58;3.88;;;3.50;;
24743;SDS011;12844;52.110;5.548;2023-06-10T07:02:23;4.40;;;4.00;;
24743;SDS011;12844;52.110;5.548;2023-06-10T07:04:49;4.05;;;3.65;;
24743;SDS011;12844;52.110;5.548;2023-06-10T07:07:15;4.10;;;3.80;;
24743;SDS011;12844;52.110;5.548;2023-06-10T07:09:40;3.80;;;3.50;;
24743;SDS011;12844;52.110;5.548;2023-06-10T07:12:06;4.18;;;3.80;;
24743;SDS011;12844;52.110;5.548;2023-06-10T07:14:32;4.35;;;3.95;;
24743;SDS011;12844;52.110;5.548;2023-06-10T07:16:58;3.85;;;3.55;;
24743;SDS011;12844;52.110;5.548;2023-06-10T07:19:24;3.90;;;3.60;;
24743;SDS011;12844;52.110;5.548;2023-06-10T07:21:49;4.30;;;3.90;;
24743;SDS011;12844;52.110;5.548;2023-06-10T07:24:15;4.05;;;3.65;;
24743;SDS011;12844;52.110;5.548;2023-06-10T07:26:40;4.32;;;3.92;;
24743;SDS011;12844;52.110;5.548;2023-06-10T07:29:06;4.07;;;3.70;;
24743;SDS011;12844;52.110;5.548;2023-06-10T07:31:32;4.50;;;4.10;;
24743;SDS011;12844;52.110;5.548;2023-06-10T07:33:57;4.05;;;3.63;;
24743;SDS011;12844;52.110;5.548;2023-06-10T07:36:23;4.57;;;4.18;;
24743;SDS011;12844;52.110;5.548;2023-06-10T07:38:48;3.95;;;3.58;;
24743;SDS011;12844;52.110;5.548;2023-06-10T07:41:14;3.75;;;3.45;;
24743;SDS011;12844;52.110;5.548;2023-06-10T07:43:42;4.05;;;3.65;;
24743;SDS011;12844;52.110;5.548;2023-06-10T07:46:08;3.80;;;3.50;;
24743;SDS011;12844;52.110;5.548;2023-06-10T07:48:33;3.90;;;3.53;;
24743;SDS011;12844;52.110;5.548;2023-06-10T07:50:59;3.80;;;3.50;;
24743;SDS011;12844;52.110;5.548;2023-06-10T07:53:24;3.80;;;3.50;;
24743;SDS011;12844;52.110;5.548;2023-06-10T07:55:50;4.13;;;3.72;;
24743;SDS011;12844;52.110;5.548;2023-06-10T07:58:15;3.88;;;3.58;;
24743;SDS011;12844;52.110;5.548;2023-06-10T08:00:41;3.95;;;3.65;;
24743;SDS011;12844;52.110;5.548;2023-06-10T08:03:07;3.78;;;3.40;;
24743;SDS011;12844;52.110;5.548;2023-06-10T08:05:32;3.42;;;3.13;;
24743;SDS011;12844;52.110;5.548;2023-06-10T08:07:58;3.83;;;3.53;;
24743;SDS011;12844;52.110;5.548;2023-06-10T08:10:23;3.60;;;3.30;;
24743;SDS011;12844;52.110;5.548;2023-06-10T08:12:49;4.10;;;3.80;;
24743;SDS011;12844;52.110;5.548;2023-06-10T08:15:14;3.78;;;3.40;;
24743;SDS011;12844;52.110;5.548;2023-06-10T08:17:40;4.00;;;3.70;;
24743;SDS011;12844;52.110;5.548;2023-06-10T08:20:06;4.00;;;3.70;;
24743;SDS011;12844;52.110;5.548;2023-06-10T08:22:31;4.10;;;3.72;;
24743;SDS011;12844;52.110;5.548;2023-06-10T08:24:58;4.07;;;3.67;;
24743;SDS011;12844;52.110;5.548;2023-06-10T08:27:24;3.42;;;3.13;;
24743;SDS011;12844;52.110;5.548;2023-06-10T08:29:50;4.13;;;3.83;;
24743;SDS011;12844;52.110;5.548;2023-06-10T08:32:15;4.20;;;3.67;;
24743;SDS011;12844;52.110;5.548;2023-06-10T08:34:41;3.75;;;3.45;;
24743;SDS011;12844;52.110;5.548;2023-06-10T08:37:06;3.88;;;3.58;;
24743;SDS011;12844;52.110;5.548;2023-06-10T08:39:32;3.55;;;3.25;;
24743;SDS011;12844;52.110;5.548;2023-06-10T08:44:46;4.20;;;3.72;;
24743;SDS011;12844;52.110;5.548;2023-06-10T08:47:16;4.10;;;3.70;;
24743;SDS011;12844;52.110;5.548;2023-06-10T08:49:45;3.78;;;3.47;;
24743;SDS011;12844;52.110;5.548;2023-06-10T08:52:16;3.95;;;3.55;;
24743;SDS011;12844;52.110;5.548;2023-06-10T08:54:43;4.05;;;3.65;;
24743;SDS011;12844;52.110;5.548;2023-06-10T08:57:27;3.75;;;3.45;;
24743;SDS011;12844;52.110;5.548;2023-06-10T08:59:55;3.65;;;3.35;;
24743;SDS011;12844;52.110;5.548;2023-06-10T09:02:21;3.92;;;3.63;;
24743;SDS011;12844;52.110;5.548;2023-06-10T09:04:48;4.10;;;3.70;;
24743;SDS011;12844;52.110;5.548;2023-06-10T09:07:16;3.80;;;3.50;;
24743;SDS011;12844;52.110;5.548;2023-06-10T09:09:42;3.30;;;3.00;;
24743;SDS011;12844;52.110;5.548;2023-06-10T09:12:09;4.00;;;3.60;;
24743;SDS011;12844;52.110;5.548;2023-06-10T09:14:35;3.63;;;3.33;;
24743;SDS011;12844;52.110;5.548;2023-06-10T09:17:01;3.70;;;3.40;;
24743;SDS011;12844;52.110;5.548;2023-06-10T09:19:27;3.58;;;3.28;;
24743;SDS011;12844;52.110;5.548;2023-06-10T09:21:53;3.75;;;3.35;;
24743;SDS011;12844;52.110;5.548;2023-06-10T09:24:20;4.03;;;3.63;;
24743;SDS011;12844;52.110;5.548;2023-06-10T09:26:47;3.53;;;3.22;;
24743;SDS011;12844;52.110;5.548;2023-06-10T09:29:12;3.67;;;3.30;;
24743;SDS011;12844;52.110;5.548;2023-06-10T09:31:39;3.80;;;3.42;;
24743;SDS011;12844;52.110;5.548;2023-06-10T09:34:12;3.40;;;3.10;;
24743;SDS011;12844;52.110;5.548;2023-06-10T09:36:39;3.33;;;2.97;;
24743;SDS011;12844;52.110;5.548;2023-06-10T09:39:05;3.60;;;3.30;;
24743;SDS011;12844;52.110;5.548;2023-06-10T09:41:41;3.80;;;3.50;;
24743;SDS011;12844;52.110;5.548;2023-06-10T09:44:14;3.72;;;3.42;;
24743;SDS011;12844;52.110;5.548;2023-06-10T09:46:42;3.83;;;3.30;;
24743;SDS011;12844;52.110;5.548;2023-06-10T09:49:10;3.50;;;3.20;;
24743;SDS011;12844;52.110;5.548;2023-06-10T09:51:35;3.70;;;3.40;;
24743;SDS011;12844;52.110;5.548;2023-06-10T09:54:04;3.70;;;3.40;;
24743;SDS011;12844;52.110;5.548;2023-06-10T09:56:36;3.28;;;3.00;;
24743;SDS011;12844;52.110;5.548;2023-06-10T09:59:03;3.78;;;3.47;;
24743;SDS011;12844;52.110;5.548;2023-06-10T10:01:31;3.80;;;3.47;;
24743;SDS011;12844;52.110;5.548;2023-06-10T10:03:58;3.45;;;3.15;;
24743;SDS011;12844;52.110;5.548;2023-06-10T10:06:24;3.20;;;2.90;;
24743;SDS011;12844;52.110;5.548;2023-06-10T10:08:50;4.07;;;3.40;;
24743;SDS011;12844;52.110;5.548;2023-06-10T10:11:17;3.67;;;3.38;;
24743;SDS011;12844;52.110;5.548;2023-06-10T10:13:47;3.90;;;3.50;;
24743;SDS011;12844;52.110;5.548;2023-06-10T10:16:15;3.70;;;3.30;;
24743;SDS011;12844;52.110;5.548;2023-06-10T10:18:54;3.70;;;3.40;;
24743;SDS011;12844;52.110;5.548;2023-06-10T10:21:22;3.95;;;3.65;;
24743;SDS011;12844;52.110;5.548;2023-06-10T10:24:07;3.65;;;3.35;;
24743;SDS011;12844;52.110;5.548;2023-06-10T10:26:45;3.60;;;3.30;;
24743;SDS011;12844;52.110;5.548;2023-06-10T10:29:20;3.60;;;3.30;;
24743;SDS011;12844;52.110;5.548;2023-06-10T10:32:01;3.28;;;2.97;;
24743;SDS011;12844;52.110;5.548;2023-06-10T10:34:43;3.65;;;3.35;;
24743;SDS011;12844;52.110;5.548;2023-06-10T10:37:10;3.53;;;3.22;;
24743;SDS011;12844;52.110;5.548;2023-06-10T10:39:36;3.55;;;3.25;;
24743;SDS011;12844;52.110;5.548;2023-06-10T10:42:02;3.67;;;3.30;;
24743;SDS011;12844;52.110;5.548;2023-06-10T10:44:29;3.70;;;3.40;;
24743;SDS011;12844;52.110;5.548;2023-06-10T10:46:56;3.58;;;3.28;;
24743;SDS011;12844;52.110;5.548;2023-06-10T10:49:27;3.40;;;3.10;;
24743;SDS011;12844;52.110;5.548;2023-06-10T10:54:29;3.20;;;2.90;;
24743;SDS011;12844;52.110;5.548;2023-06-10T11:02:40;3.70;;;3.40;;
24743;SDS011;12844;52.110;5.548;2023-06-10T11:05:12;3.63;;;3.33;;
24743;SDS011;12844;52.110;5.548;2023-06-10T11:07:39;3.63;;;3.33;;
24743;SDS011;12844;52.110;5.548;2023-06-10T11:10:14;3.60;;;3.30;;
24743;SDS011;12844;52.110;5.548;2023-06-10T11:12:53;3.40;;;3.10;;
24743;SDS011;12844;52.110;5.548;2023-06-10T11:23:10;3.97;;;3.40;;
24743;SDS011;12844;52.110;5.548;2023-06-10T11:25:39;3.50;;;3.20;;
24743;SDS011;12844;52.110;5.548;2023-06-10T11:28:17;3.10;;;2.80;;
24743;SDS011;12844;52.110;5.548;2023-06-10T11:30:43;3.20;;;2.90;;
24743;SDS011;12844;52.110;5.548;2023-06-10T11:33:09;3.42;;;3.13;;
24743;SDS011;12844;52.110;5.548;2023-06-10T11:35:42;3.33;;;3.03;;
24743;SDS011;12844;52.110;5.548;2023-06-10T11:38:08;3.47;;;3.17;;
24743;SDS011;12844;52.110;5.548;2023-06-10T11:40:34;3.35;;;3.05;;
24743;SDS011;12844;52.110;5.548;2023-06-10T11:43:01;3.30;;;3.00;;
24743;SDS011;12844;52.110;5.548;2023-06-10T11:45:28;2.92;;;2.72;;
24743;SDS011;12844;52.110;5.548;2023-06-10T11:47:57;3.65;;;3.10;;
24743;SDS011;12844;52.110;5.548;2023-06-10T11:50:31;3.45;;;3.15;;
24743;SDS011;12844;52.110;5.548;2023-06-10T11:52:57;3.45;;;3.15;;
24743;SDS011;12844;52.110;5.548;2023-06-10T11:55:23;3.40;;;3.10;;
24743;SDS011;12844;52.110;5.548;2023-06-10T11:58:12;3.75;;;3.40;;
24743;SDS011;12844;52.110;5.548;2023-06-10T12:00:51;3.55;;;3.25;;
24743;SDS011;12844;52.110;5.548;2023-06-10T12:03:19;3.67;;;3.03;;
24743;SDS011;12844;52.110;5.548;2023-06-10T12:05:58;3.40;;;3.10;;
24743;SDS011;12844;52.110;5.548;2023-06-10T12:08:30;3.72;;;3.42;;
24743;SDS011;12844;52.110;5.548;2023-06-10T12:10:56;3.28;;;2.97;;
24743;SDS011;12844;52.110;5.548;2023-06-10T12:13:22;3.35;;;3.05;;
24743;SDS011;12844;52.110;5.548;2023-06-10T12:15:49;3.20;;;2.90;;
24743;SDS011;12844;52.110;5.548;2023-06-10T12:18:15;3.30;;;3.00;;
24743;SDS011;12844;52.110;5.548;2023-06-10T12:20:44;3.50;;;3.20;;
24743;SDS011;12844;52.110;5.548;2023-06-10T12:23:10;3.67;;;3.38;;
24743;SDS011;12844;52.110;5.548;2023-06-10T12:25:37;3.05;;;2.75;;
24743;SDS011;12844;52.110;5.548;2023-06-10T12:28:03;3.67;;;3.30;;
24743;SDS011;12844;52.110;5.548;2023-06-10T12:30:29;3.35;;;3.05;;
24743;SDS011;12844;52.110;5.548;2023-06-10T12:32:56;3.42;;;3.13;;
24743;SDS011;12844;52.110;5.548;2023-06-10T12:35:26;2.90;;;2.70;;
24743;SDS011;12844;52.110;5.548;2023-06-10T12:37:56;3.80;;;3.50;;
24743;SDS011;12844;52.110;5.548;2023-06-10T12:40:26;3.35;;;3.05;;
24743;SDS011;12844;52.110;5.548;2023-06-10T12:42:56;4.43;;;3.15;;
24743;SDS011;12844;52.110;5.548;2023-06-10T12:45:33;3.35;;;3.00;;
24743;SDS011;12844;52.110;5.548;2023-06-10T12:48:07;3.33;;;3.03;;
24743;SDS011;12844;52.110;5.548;2023-06-10T12:50:41;3.42;;;3.13;;
24743;SDS011;12844;52.110;5.548;2023-06-10T12:53:07;3.17;;;2.88;;
24743;SDS011;12844;52.110;5.548;2023-06-10T12:55:33;3.80;;;3.40;;
24743;SDS011;12844;52.110;5.548;2023-06-10T12:58:00;3.22;;;2.92;;
24743;SDS011;12844;52.110;5.548;2023-06-10T13:00:26;3.30;;;3.00;;
24743;SDS011;12844;52.110;5.548;2023-06-10T13:02:54;3.28;;;2.97;;
24743;SDS011;12844;52.110;5.548;2023-06-10T13:05:25;3.22;;;2.92;;
24743;SDS011;12844;52.110;5.548;2023-06-10T13:07:51;3.55;;;3.25;;
24743;SDS011;12844;52.110;5.548;2023-06-10T13:10:17;3.60;;;3.30;;
24743;SDS011;12844;52.110;5.548;2023-06-10T13:12:43;3.13;;;2.85;;
24743;SDS011;12844;52.110;5.548;2023-06-10T13:15:10;2.83;;;2.63;;
24743;SDS011;12844;52.110;5.548;2023-06-10T13:17:36;3.47;;;3.17;;
24743;SDS011;12844;52.110;5.548;2023-06-10T13:20:05;3.40;;;3.08;;
24743;SDS011;12844;52.110;5.548;2023-06-10T13:22:32;3.80;;;3.40;;
24743;SDS011;12844;52.110;5.548;2023-06-10T13:24:59;4.25;;;3.53;;
24743;SDS011;12844;52.110;5.548;2023-06-10T13:27:25;3.30;;;3.00;;
24743;SDS011;12844;52.110;5.548;2023-06-10T13:29:52;3.60;;;3.30;;
24743;SDS011;12844;52.110;5.548;2023-06-10T13:32:18;2.97;;;2.78;;
24743;SDS011;12844;52.110;5.548;2023-06-10T13:34:43;3.42;;;3.13;;
24743;SDS011;12844;52.110;5.548;2023-06-10T13:37:09;3.30;;;3.00;;
24743;SDS011;12844;52.110;5.548;2023-06-10T13:39:35;3.58;;;3.28;;
24743;SDS011;12844;52.110;5.548;2023-06-10T13:42:01;3.72;;;3.42;;
24743;SDS011;12844;52.110;5.548;2023-06-10T13:44:26;3.75;;;3.45;;
24743;SDS011;12844;52.110;5.548;2023-06-10T13:46:55;3.28;;;2.97;;
24743;SDS011;12844;52.110;5.548;2023-06-10T13:49:21;3.38;;;3.08;;
24743;SDS011;12844;52.110;5.548;2023-06-10T13:51:47;3.50;;;3.20;;
24743;SDS011;12844;52.110;5.548;2023-06-10T13:54:12;3.20;;;2.90;;
24743;SDS011;12844;52.110;5.548;2023-06-10T13:56:40;3.63;;;3.33;;
24743;SDS011;12844;52.110;5.548;2023-06-10T13:59:06;3.40;;;3.10;;
24743;SDS011;12844;52.110;5.548;2023-06-10T14:01:31;3.58;;;3.28;;
24743;SDS011;12844;52.110;5.548;2023-06-10T14:03:57;3.28;;;2.97;;
24743;SDS011;12844;52.110;5.548;2023-06-10T14:06:22;3.38;;;3.08;;
24743;SDS011;12844;52.110;5.548;2023-06-10T14:08:48;3.58;;;3.28;;
24743;SDS011;12844;52.110;5.548;2023-06-10T14:11:13;3.42;;;3.13;;
24743;SDS011;12844;52.110;5.548;2023-06-10T14:13:39;3.63;;;3.22;;
24743;SDS011;12844;52.110;5.548;2023-06-10T14:16:05;3.28;;;2.97;;
24743;SDS011;12844;52.110;5.548;2023-06-10T14:18:31;3.40;;;3.10;;
24743;SDS011;12844;52.110;5.548;2023-06-10T14:20:56;3.38;;;3.08;;
24743;SDS011;12844;52.110;5.548;2023-06-10T14:23:22;3.53;;;3.22;;
24743;SDS011;12844;52.110;5.548;2023-06-10T14:25:49;3.65;;;3.35;;
24743;SDS011;12844;52.110;5.548;2023-06-10T14:28:15;3.75;;;3.15;;
24743;SDS011;12844;52.110;5.548;2023-06-10T14:30:40;3.53;;;3.22;;
24743;SDS011;12844;52.110;5.548;2023-06-10T14:33:06;3.47;;;3.17;;
24743;SDS011;12844;52.110;5.548;2023-06-10T14:35:31;3.90;;;3.53;;
24743;SDS011;12844;52.110;5.548;2023-06-10T14:37:57;3.50;;;3.20;;
24743;SDS011;12844;52.110;5.548;2023-06-10T14:40:22;3.30;;;3.00;;
24743;SDS011;12844;52.110;5.548;2023-06-10T14:42:49;3.45;;;3.15;;
24743;SDS011;12844;52.110;5.548;2023-06-10T14:45:15;3.28;;;2.97;;
24743;SDS011;12844;52.110;5.548;2023-06-10T14:47:40;3.38;;;3.08;;
24743;SDS011;12844;52.110;5.548;2023-06-10T14:50:06;3.30;;;3.00;;
24743;SDS011;12844;52.110;5.548;2023-06-10T14:52:32;3.70;;;3.40;;
24743;SDS011;12844;52.110;5.548;2023-06-10T14:54:57;3.60;;;3.30;;
24743;SDS011;12844;52.110;5.548;2023-06-10T14:57:23;3.25;;;2.95;;
24743;SDS011;12844;52.110;5.548;2023-06-10T14:59:48;3.47;;;3.17;;
24743;SDS011;12844;52.110;5.548;2023-06-10T15:02:14;3.33;;;3.00;;
24743;SDS011;12844;52.110;5.548;2023-06-10T15:04:39;3.45;;;3.15;;
24743;SDS011;12844;52.110;5.548;2023-06-10T15:07:05;3.33;;;3.03;;
24743;SDS011;12844;52.110;5.548;2023-06-10T15:09:31;3.50;;;3.20;;
24743;SDS011;12844;52.110;5.548;2023-06-10T15:11:57;3.53;;;3.22;;
24743;SDS011;12844;52.110;5.548;2023-06-10T15:14:24;3.08;;;2.85;;
24743;SDS011;12844;52.110;5.548;2023-06-10T15:16:50;3.50;;;3.20;;
24743;SDS011;12844;52.110;5.548;2023-06-10T15:19:16;3.40;;;3.10;;
24743;SDS011;12844;52.110;5.548;2023-06-10T15:21:41;3.40;;;3.10;;
24743;SDS011;12844;52.110;5.548;2023-06-10T15:24:07;3.50;;;3.20;;
24743;SDS011;12844;52.110;5.548;2023-06-10T15:26:33;3.40;;;3.10;;
24743;SDS011;12844;52.110;5.548;2023-06-10T15:28:58;3.05;;;2.75;;
24743;SDS011;12844;52.110;5.548;2023-06-10T15:31:28;3.58;;;3.28;;
24743;SDS011;12844;52.110;5.548;2023-06-10T15:33:55;3.40;;;3.10;;
24743;SDS011;12844;52.110;5.548;2023-06-10T15:36:20;3.55;;;3.25;;
24743;SDS011;12844;52.110;5.548;2023-06-10T15:38:46;3.45;;;3.15;;
24743;SDS011;12844;52.110;5.548;2023-06-10T15:41:12;3.42;;;3.13;;
24743;SDS011;12844;52.110;5.548;2023-06-10T15:43:38;3.50;;;3.20;;
24743;SDS011;12844;52.110;5.548;2023-06-10T15:46:03;3.30;;;3.00;;
24743;SDS011;12844;52.110;5.548;2023-06-10T15:48:29;3.40;;;3.10;;
24743;SDS011;12844;52.110;5.548;2023-06-10T15:50:55;3.10;;;2.90;;
24743;SDS011;12844;52.110;5.548;2023-06-10T15:53:20;3.30;;;3.00;;
24743;SDS011;12844;52.110;5.548;2023-06-10T15:55:46;3.33;;;2.92;;
24743;SDS011;12844;52.110;5.548;2023-06-10T15:58:12;3.33;;;3.03;;
24743;SDS011;12844;52.110;5.548;2023-06-10T16:00:37;3.22;;;2.92;;
24743;SDS011;12844;52.110;5.548;2023-06-10T16:03:03;3.00;;;2.75;;
24743;SDS011;12844;52.110;5.548;2023-06-10T16:05:28;3.30;;;3.00;;
24743;SDS011;12844;52.110;5.548;2023-06-10T16:07:54;3.42;;;3.13;;
24743;SDS011;12844;52.110;5.548;2023-06-10T16:10:19;3.53;;;3.22;;
24743;SDS011;12844;52.110;5.548;2023-06-10T16:12:47;3.38;;;3.08;;
24743;SDS011;12844;52.110;5.548;2023-06-10T16:15:13;3.13;;;2.88;;
24743;SDS011;12844;52.110;5.548;2023-06-10T16:17:38;3.22;;;2.92;;
24743;SDS011;12844;52.110;5.548;2023-06-10T16:20:04;2.88;;;2.67;;
24743;SDS011;12844;52.110;5.548;2023-06-10T16:22:31;3.72;;;3.42;;
24743;SDS011;12844;52.110;5.548;2023-06-10T16:24:57;3.42;;;3.13;;
24743;SDS011;12844;52.110;5.548;2023-06-10T16:27:22;3.40;;;3.10;;
24743;SDS011;12844;52.110;5.548;2023-06-10T16:29:50;3.90;;;3.28;;
24743;SDS011;12844;52.110;5.548;2023-06-10T16:32:16;3.42;;;3.10;;
24743;SDS011;12844;52.110;5.548;2023-06-10T16:34:42;3.35;;;3.05;;
24743;SDS011;12844;52.110;5.548;2023-06-10T16:37:07;3.55;;;3.25;;
24743;SDS011;12844;52.110;5.548;2023-06-10T16:39:33;3.78;;;3.40;;
24743;SDS011;12844;52.110;5.548;2023-06-10T16:41:58;3.00;;;2.72;;
24743;SDS011;12844;52.110;5.548;2023-06-10T16:44:24;3.13;;;2.83;;
24743;SDS011;12844;52.110;5.548;2023-06-10T16:46:50;3.33;;;3.03;;
24743;SDS011;12844;52.110;5.548;2023-06-10T16:49:16;3.47;;;3.17;;
24743;SDS011;12844;52.110;5.548;2023-06-10T16:51:41;2.95;;;2.65;;
24743;SDS011;12844;52.110;5.548;2023-06-10T16:54:07;3.33;;;3.03;;
24743;SDS011;12844;52.110;5.548;2023-06-10T16:56:33;3.13;;;2.90;;
24743;SDS011;12844;52.110;5.548;2023-06-10T16:58:58;3.50;;;3.20;;
24743;SDS011;12844;52.110;5.548;2023-06-10T17:01:24;3.30;;;3.00;;
24743;SDS011;12844;52.110;5.548;2023-06-10T17:03:49;3.78;;;3.47;;
24743;SDS011;12844;52.110;5.548;2023-06-10T17:06:15;3.03;;;2.83;;
24743;SDS011;12844;52.110;5.548;2023-06-10T17:08:40;3.30;;;3.00;;
24743;SDS011;12844;52.110;5.548;2023-06-10T17:11:06;3.65;;;3.35;;
24743;SDS011;12844;52.110;5.548;2023-06-10T17:13:31;3.30;;;3.05;;
24743;SDS011;12844;52.110;5.548;2023-06-10T17:15:57;3.25;;;2.95;;
24743;SDS011;12844;52.110;5.548;2023-06-10T17:18:22;3.50;;;3.20;;
24743;SDS011;12844;52.110;5.548;2023-06-10T17:20:48;3.47;;;3.17;;
24743;SDS011;12844;52.110;5.548;2023-06-10T17:23:14;2.92;;;2.72;;
24743;SDS011;12844;52.110;5.548;2023-06-10T17:25:39;3.60;;;3.30;;
24743;SDS011;12844;52.110;5.548;2023-06-10T17:28:05;3.40;;;3.10;;
24743;SDS011;12844;52.110;5.548;2023-06-10T17:30:30;3.28;;;2.97;;
24743;SDS011;12844;52.110;5.548;2023-06-10T17:32:56;3.33;;;3.03;;
24743;SDS011;12844;52.110;5.548;2023-06-10T17:35:21;3.05;;;2.85;;
24743;SDS011;12844;52.110;5.548;2023-06-10T17:37:47;3.42;;;3.13;;
24743;SDS011;12844;52.110;5.548;2023-06-10T17:40:12;3.13;;;2.83;;
24743;SDS011;12844;52.110;5.548;2023-06-10T17:42:38;3.30;;;3.00;;
24743;SDS011;12844;52.110;5.548;2023-06-10T17:45:04;3.60;;;3.30;;
24743;SDS011;12844;52.110;5.548;2023-06-10T17:47:30;3.35;;;3.10;;
24743;SDS011;12844;52.110;5.548;2023-06-10T17:49:55;3.22;;;2.92;;
24743;SDS011;12844;52.110;5.548;2023-06-10T17:52:21;2.70;;;2.50;;
24743;SDS011;12844;52.110;5.548;2023-06-10T17:54:46;3.25;;;2.95;;
24743;SDS011;12844;52.110;5.548;2023-06-10T17:57:12;3.15;;;2.85;;
24743;SDS011;12844;52.110;5.548;2023-06-10T17:59:37;3.50;;;3.20;;
24743;SDS011;12844;52.110;5.548;2023-06-10T18:02:03;3.08;;;2.83;;
24743;SDS011;12844;52.110;5.548;2023-06-10T18:04:30;3.30;;;3.00;;
24743;SDS011;12844;52.110;5.548;2023-06-10T18:06:56;3.72;;;3.08;;
24743;SDS011;12844;52.110;5.548;2023-06-10T18:09:21;3.28;;;2.92;;
24743;SDS011;12844;52.110;5.548;2023-06-10T18:11:50;3.53;;;3.22;;
24743;SDS011;12844;52.110;5.548;2023-06-10T18:14:15;3.42;;;3.13;;
24743;SDS011;12844;52.110;5.548;2023-06-10T18:16:41;3.50;;;3.20;;
24743;SDS011;12844;52.110;5.548;2023-06-10T18:19:06;3.15;;;2.85;;
24743;SDS011;12844;52.110;5.548;2023-06-10T18:21:32;3.50;;;3.20;;
24743;SDS011;12844;52.110;5.548;2023-06-10T18:23:57;3.08;;;2.80;;
24743;SDS011;12844;52.110;5.548;2023-06-10T18:26:23;3.22;;;2.92;;
24743;SDS011;12844;52.110;5.548;2023-06-10T18:28:48;3.20;;;2.90;;
24743;SDS011;12844;52.110;5.548;2023-06-10T18:31:14;3.28;;;2.97;;
24743;SDS011;12844;52.110;5.548;2023-06-10T18:33:40;3.00;;;2.80;;
24743;SDS011;12844;52.110;5.548;2023-06-10T18:36:05;3.30;;;3.00;;
24743;SDS011;12844;52.110;5.548;2023-06-10T18:38:31;3.47;;;3.17;;
24743;SDS011;12844;52.110;5.548;2023-06-10T18:40:57;2.97;;;2.72;;
24743;SDS011;12844;52.110;5.548;2023-06-10T18:43:22;3.47;;;3.17;;
24743;SDS011;12844;52.110;5.548;2023-06-10T18:45:48;3.40;;;3.10;;
24743;SDS011;12844;52.110;5.548;2023-06-10T18:48:13;3.15;;;2.88;;
24743;SDS011;12844;52.110;5.548;2023-06-10T18:50:39;3.15;;;2.90;;
24743;SDS011;12844;52.110;5.548;2023-06-10T18:53:04;3.35;;;3.05;;
24743;SDS011;12844;52.110;5.548;2023-06-10T18:55:30;3.38;;;3.13;;
24743;SDS011;12844;52.110;5.548;2023-06-10T18:57:57;3.28;;;2.97;;
24743;SDS011;12844;52.110;5.548;2023-06-10T19:00:22;3.78;;;3.47;;
24743;SDS011;12844;52.110;5.548;2023-06-10T19:02:48;2.85;;;2.65;;
24743;SDS011;12844;52.110;5.548;2023-06-10T19:05:13;3.42;;;3.10;;
24743;SDS011;12844;52.110;5.548;2023-06-10T19:07:39;3.13;;;2.90;;
24743;SDS011;12844;52.110;5.548;2023-06-10T19:10:05;3.28;;;2.97;;
24743;SDS011;12844;52.110;5.548;2023-06-10T19:12:31;3.20;;;2.90;;
24743;SDS011;12844;52.110;5.548;2023-06-10T19:14:57;3.22;;;2.92;;
24743;SDS011;12844;52.110;5.548;2023-06-10T19:17:22;3.22;;;2.92;;
24743;SDS011;12844;52.110;5.548;2023-06-10T19:19:48;3.10;;;2.90;;
24743;SDS011;12844;52.110;5.548;2023-06-10T19:22:14;2.95;;;2.75;;
24743;SDS011;12844;52.110;5.548;2023-06-10T19:24:40;3.38;;;3.00;;
24743;SDS011;12844;52.110;5.548;2023-06-10T19:27:07;3.20;;;2.88;;
24743;SDS011;12844;52.110;5.548;2023-06-10T19:29:33;2.90;;;2.70;;
24743;SDS011;12844;52.110;5.548;2023-06-10T19:31:58;3.30;;;3.00;;
24743;SDS011;12844;52.110;5.548;2023-06-10T19:34:24;3.60;;;3.30;;
24743;SDS011;12844;52.110;5.548;2023-06-10T19:36:51;3.03;;;2.72;;
24743;SDS011;12844;52.110;5.548;2023-06-10T19:39:16;3.10;;;2.80;;
24743;SDS011;12844;52.110;5.548;2023-06-10T19:41:42;3.30;;;3.00;;
24743;SDS011;12844;52.110;5.548;2023-06-10T19:44:08;2.78;;;2.58;;
24743;SDS011;12844;52.110;5.548;2023-06-10T19:46:33;3.20;;;2.90;;
24743;SDS011;12844;52.110;5.548;2023-06-10T19:48:59;2.83;;;2.63;;
24743;SDS011;12844;52.110;5.548;2023-06-10T19:51:25;3.00;;;2.80;;
24743;SDS011;12844;52.110;5.548;2023-06-10T19:53:51;2.97;;;2.78;;
24743;SDS011;12844;52.110;5.548;2023-06-10T19:56:16;2.65;;;2.45;;
24743;SDS011;12844;52.110;5.548;2023-06-10T19:58:47;3.28;;;2.97;;
24743;SDS011;12844;52.110;5.548;2023-06-10T20:01:16;2.90;;;2.60;;
24743;SDS011;12844;52.110;5.548;2023-06-10T20:03:41;3.17;;;2.70;;
24743;SDS011;12844;52.110;5.548;2023-06-10T20:06:07;2.63;;;2.42;;
24743;SDS011;12844;52.110;5.548;2023-06-10T20:08:33;3.60;;;2.97;;
24743;SDS011;12844;52.110;5.548;2023-06-10T20:11:00;2.70;;;2.50;;
24743;SDS011;12844;52.110;5.548;2023-06-10T20:13:25;2.92;;;2.67;;
24743;SDS011;12844;52.110;5.548;2023-06-10T20:15:51;3.45;;;2.53;;
24743;SDS011;12844;52.110;5.548;2023-06-10T20:18:17;2.97;;;2.78;;
24743;SDS011;12844;52.110;5.548;2023-06-10T20:20:42;3.10;;;2.80;;
24743;SDS011;12844;52.110;5.548;2023-06-10T20:23:08;2.88;;;2.67;;
24743;SDS011;12844;52.110;5.548;2023-06-10T20:25:33;2.97;;;2.75;;
24743;SDS011;12844;52.110;5.548;2023-06-10T20:27:59;3.05;;;2.83;;
24743;SDS011;12844;52.110;5.548;2023-06-10T20:30:26;3.00;;;2.80;;
24743;SDS011;12844;52.110;5.548;2023-06-10T20:32:51;2.63;;;2.42;;
24743;SDS011;12844;52.110;5.548;2023-06-10T20:35:17;2.75;;;2.55;;
24743;SDS011;12844;52.110;5.548;2023-06-10T20:37:44;3.13;;;2.92;;
24743;SDS011;12844;52.110;5.548;2023-06-10T20:40:10;2.88;;;2.67;;
24743;SDS011;12844;52.110;5.548;2023-06-10T20:42:38;2.88;;;2.67;;
24743;SDS011;12844;52.110;5.548;2023-06-10T20:45:04;3.03;;;2.83;;
24743;SDS011;12844;52.110;5.548;2023-06-10T20:47:31;2.78;;;2.58;;
24743;SDS011;12844;52.110;5.548;2023-06-10T20:49:56;2.83;;;2.63;;
24743;SDS011;12844;52.110;5.548;2023-06-10T20:52:22;3.13;;;2.83;;
24743;SDS011;12844;52.110;5.548;2023-06-10T20:54:47;2.97;;;2.78;;
24743;SDS011;12844;52.110;5.548;2023-06-10T20:57:13;2.80;;;2.60;;
24743;SDS011;12844;52.110;5.548;2023-06-10T20:59:39;2.85;;;2.60;;
24743;SDS011;12844;52.110;5.548;2023-06-10T21:02:05;2.90;;;2.70;;
24743;SDS011;12844;52.110;5.548;2023-06-10T21:04:31;3.10;;;2.80;;
24743;SDS011;12844;52.110;5.548;2023-06-10T21:06:57;3.05;;;2.80;;
24743;SDS011;12844;52.110;5.548;2023-06-10T21:09:23;2.70;;;2.50;;
24743;SDS011;12844;52.110;5.548;2023-06-10T21:11:48;2.80;;;2.60;;
24743;SDS011;12844;52.110;5.548;2023-06-10T21:14:14;3.03;;;2.75;;